Time;durP1;ratioP1;P1;durP2;ratioP2;P2;SDS_P1;SDS_P2;PMS_P1;PMS_P2;Temp;Humidity;BMP_temperature;BMP_pressure;BME280_temperature;BME280_humidity;BME280_pressure;Samples;Min_cycle;Max_cycle;Signal;HPM_P1;HPM_P2
2023/12/06 00:00:52;;;;;;;18.45;13.60;;;;;;;2.67;100.00;101146.75;5033032;28;20356;-73
2023/12/06 00:03:17;;;;;;;20.33;13.93;;;;;;;2.71;100.00;101147.63;5033311;28;20035;-73
2023/12/06 00:05:42;;;;;;;21.10;14.73;;;;;;;2.72;100.00;101148.47;5033749;28;20048;-73
2023/12/06 00:08:08;;;;;;;18.77;13.52;;;;;;;2.73;100.00;101145.88;5033211;28;20040;-73
2023/12/06 00:10:33;;;;;;;17.50;13.68;;;;;;;2.72;100.00;101148.47;5038792;28;20385;-73
2023/12/06 00:12:59;;;;;;;21.15;15.23;;;;;;;2.74;100.00;101152.75;5036334;28;20042;-73
2023/12/06 00:15:24;;;;;;;20.60;13.90;;;;;;;2.76;100.00;101151.03;5024178;28;20136;-73
2023/12/06 00:17:49;;;;;;;20.70;13.82;;;;;;;2.78;100.00;101162.22;5032843;28;20072;-73
2023/12/06 00:20:15;;;;;;;17.88;13.40;;;;;;;2.80;100.00;101157.94;5033096;28;20075;-73
2023/12/06 00:22:40;;;;;;;16.70;12.32;;;;;;;2.81;100.00;101161.38;5033176;28;20049;-73
2023/12/06 00:25:06;;;;;;;19.00;13.82;;;;;;;2.82;100.00;101168.25;5033696;28;20410;-73
2023/12/06 00:27:31;;;;;;;16.38;12.63;;;;;;;2.83;100.00;101173.41;5033269;28;20040;-73
2023/12/06 00:29:57;;;;;;;19.15;14.02;;;;;;;2.83;100.00;101172.56;5033675;28;20124;-73
2023/12/06 00:32:23;;;;;;;21.92;14.45;;;;;;;2.83;100.00;101175.16;5033809;28;20037;-73
2023/12/06 00:34:48;;;;;;;18.88;13.63;;;;;;;2.83;100.00;101176.00;5033373;28;20194;-73
2023/12/06 00:37:13;;;;;;;19.20;13.32;;;;;;;2.84;100.00;101176.88;5033653;28;20103;-73
2023/12/06 00:39:39;;;;;;;19.17;13.00;;;;;;;2.86;100.00;101185.50;5033410;28;20028;-73
2023/12/06 00:42:04;;;;;;;16.98;12.80;;;;;;;2.86;100.00;101183.75;5033525;28;20087;-73
2023/12/06 00:44:29;;;;;;;18.13;12.57;;;;;;;2.88;100.00;101187.19;5034208;28;20080;-73
2023/12/06 00:46:55;;;;;;;18.52;12.85;;;;;;;2.92;100.00;101184.63;5033931;28;20275;-73
2023/12/06 00:49:20;;;;;;;15.95;11.45;;;;;;;2.94;100.00;101185.47;5033598;28;20557;-73
2023/12/06 00:51:45;;;;;;;17.77;11.98;;;;;;;2.94;100.00;101186.31;5033406;28;20041;-73
2023/12/06 00:54:11;;;;;;;18.60;13.02;;;;;;;2.94;100.00;101196.66;5033419;28;20040;-73
2023/12/06 00:56:36;;;;;;;18.20;13.23;;;;;;;2.93;100.00;101188.91;5033284;28;20273;-73
2023/12/06 00:59:04;;;;;;;22.08;14.32;;;;;;;2.92;100.00;101195.81;5033747;28;20072;-73
2023/12/06 01:01:29;;;;;;;17.90;13.20;;;;;;;2.92;100.00;101202.72;5033249;28;20374;-73
2023/12/06 01:03:54;;;;;;;20.75;13.80;;;;;;;2.92;100.00;101203.56;5033857;28;20029;-73
2023/12/06 01:06:20;;;;;;;14.93;12.13;;;;;;;2.94;100.00;101201.84;5033718;28;20108;-73
2023/12/06 01:08:48;;;;;;;17.52;13.07;;;;;;;2.96;100.00;101209.59;5033079;28;20442;-73
2023/12/06 01:11:13;;;;;;;18.33;13.25;;;;;;;2.98;100.00;101207.88;5033506;28;20228;-73
2023/12/06 01:13:39;;;;;;;15.48;12.23;;;;;;;2.98;100.00;101210.47;5034563;28;20029;-73
2023/12/06 01:16:04;;;;;;;16.35;12.57;;;;;;;3.00;100.00;101213.91;5037971;28;20048;-73
2023/12/06 01:18:30;;;;;;;18.60;12.15;;;;;;;2.99;100.00;101220.81;5037141;28;20025;-73
2023/12/06 01:20:55;;;;;;;18.50;12.88;;;;;;;2.99;100.00;101213.03;5037529;28;20293;-73
2023/12/06 01:23:20;;;;;;;19.13;13.82;;;;;;;3.00;100.00;101217.38;5038662;28;20255;-73
2023/12/06 01:25:46;;;;;;;18.02;13.25;;;;;;;2.99;100.00;101213.03;5037439;28;20374;-73
2023/12/06 01:28:11;;;;;;;18.48;13.55;;;;;;;2.99;100.00;101225.97;5037112;28;20037;-73
2023/12/06 01:30:36;;;;;;;17.55;13.57;;;;;;;3.00;100.00;101219.06;5037181;28;20231;-73
2023/12/06 01:33:02;;;;;;;19.83;13.52;;;;;;;3.00;100.00;101232.00;5037059;28;20135;-73
2023/12/06 01:35:27;;;;;;;16.38;13.30;;;;;;;3.01;100.00;101223.38;5037079;28;20037;-73
2023/12/06 01:37:52;;;;;;;19.15;13.27;;;;;;;2.98;100.00;101221.66;5037295;28;20029;-73
2023/12/06 01:40:18;;;;;;;19.05;14.73;;;;;;;2.95;100.00;101226.88;5036383;28;20377;-73
2023/12/06 01:42:46;;;;;;;20.63;14.20;;;;;;;2.91;100.00;101224.28;5036935;28;20037;-73
2023/12/06 01:45:13;;;;;;;19.65;14.50;;;;;;;2.89;100.00;101234.63;5036901;28;20036;-73
2023/12/06 01:47:41;;;;;;;25.52;14.75;;;;;;;2.86;100.00;101242.41;5036524;28;20033;-73
2023/12/06 01:50:08;;;;;;;23.02;15.60;;;;;;;2.85;100.00;101227.75;5019286;28;20037;-73
2023/12/06 01:52:34;;;;;;;23.73;15.98;;;;;;;2.85;100.00;101236.34;5036066;28;20032;-73
2023/12/06 01:55:00;;;;;;;24.13;14.82;;;;;;;2.86;100.00;101238.09;5036457;28;20037;-73
2023/12/06 01:57:28;;;;;;;21.75;15.05;;;;;;;2.88;100.00;101243.28;5036653;28;20041;-73
2023/12/06 01:59:54;;;;;;;23.48;15.32;;;;;;;2.83;100.00;101243.25;5037043;28;20035;-73
2023/12/06 02:02:20;;;;;;;32.70;17.35;;;;;;;2.75;100.00;101247.59;5036881;28;20044;-73
2023/12/06 02:04:46;;;;;;;28.88;16.33;;;;;;;2.73;100.00;101251.94;5036606;28;20044;-73
2023/12/06 02:07:11;;;;;;;27.08;16.70;;;;;;;2.75;100.00;101250.19;5036800;28;20037;-73
2023/12/06 02:09:37;;;;;;;25.38;16.75;;;;;;;2.72;100.00;101260.53;5036465;28;20036;-73
2023/12/06 02:12:02;;;;;;;25.40;17.55;;;;;;;2.74;100.00;101250.19;5036407;28;20224;-73
2023/12/06 02:14:33;;;;;;;22.58;16.15;;;;;;;2.76;100.00;101259.66;5036305;28;20040;-73
2023/12/06 02:17:00;;;;;;;22.40;16.00;;;;;;;2.80;100.00;101260.50;5036395;28;20617;-73
2023/12/06 02:19:27;;;;;;;21.88;15.52;;;;;;;2.83;100.00;101263.97;5036459;28;20029;-73
2023/12/06 02:21:54;;;;;;;23.58;16.60;;;;;;;2.84;100.00;101264.84;5036365;28;20049;-73
2023/12/06 02:24:21;;;;;;;27.08;16.85;;;;;;;2.87;100.00;101265.69;5035833;28;20135;-73
2023/12/06 02:26:52;;;;;;;24.15;15.80;;;;;;;2.92;100.00;101265.66;5035925;28;20033;-73
2023/12/06 02:29:17;;;;;;;23.95;16.08;;;;;;;2.97;100.00;101269.13;5035944;28;20439;-73
2023/12/06 02:31:43;;;;;;;22.50;15.20;;;;;;;2.97;100.00;101260.50;5035986;28;20068;-73
2023/12/06 02:34:14;;;;;;;24.45;16.65;;;;;;;2.98;100.00;101267.38;5036156;28;20049;-73
2023/12/06 02:36:41;;;;;;;24.10;15.90;;;;;;;2.98;100.00;101264.78;5035921;28;20093;-73
2023/12/06 02:39:09;;;;;;;20.45;14.68;;;;;;;3.00;100.00;101265.66;5035922;28;20091;-73
2023/12/06 02:41:34;;;;;;;17.92;13.70;;;;;;;3.03;100.00;101263.91;5035831;28;20055;-73
2023/12/06 02:44:00;;;;;;;19.42;13.80;;;;;;;3.01;100.00;101262.22;5035727;28;20037;-73
2023/12/06 02:46:26;;;;;;;20.42;13.18;;;;;;;3.01;100.00;101263.06;5036267;28;20068;-73
2023/12/06 02:48:51;;;;;;;19.88;12.88;;;;;;;3.00;100.00;101269.13;5036040;28;20030;-73
2023/12/06 02:51:17;;;;;;;15.57;11.63;;;;;;;3.04;100.00;101269.97;5035654;28;20037;-73
2023/12/06 02:53:42;;;;;;;16.15;9.98;;;;;;;3.07;100.00;101276.00;5035478;28;20026;-73
2023/12/06 02:56:08;;;;;;;12.90;9.27;;;;;;;3.10;100.00;101280.28;5035981;28;20044;-73
2023/12/06 02:58:33;;;;;;;13.10;9.00;;;;;;;3.11;100.00;101278.56;5035044;28;20226;-73
2023/12/06 03:00:58;;;;;;;15.82;8.93;;;;;;;3.14;100.00;101278.56;5035791;28;20029;-73
2023/12/06 03:03:24;;;;;;;19.67;9.35;;;;;;;3.15;100.00;101282.88;5035331;28;20040;-73
2023/12/06 03:05:49;;;;;;;12.80;8.68;;;;;;;3.18;100.00;101281.13;5035663;28;20017;-73
2023/12/06 03:08:14;;;;;;;12.55;8.95;;;;;;;3.21;100.00;101275.94;5035276;28;20056;-73
2023/12/06 03:10:41;;;;;;;12.55;8.57;;;;;;;3.21;100.00;101278.53;5035236;28;20052;-73
2023/12/06 03:13:06;;;;;;;10.75;8.35;;;;;;;3.21;100.00;101268.19;5035261;28;20361;-73
2023/12/06 03:15:31;;;;;;;16.38;8.60;;;;;;;3.23;100.00;101271.63;5035098;28;20290;-73
2023/12/06 03:17:57;;;;;;;9.43;8.13;;;;;;;3.22;100.00;101275.09;5034275;28;20038;-73
2023/12/06 03:20:22;;;;;;;12.35;8.65;;;;;;;3.24;100.00;101277.69;5034939;28;20029;-73
2023/12/06 03:22:47;;;;;;;10.65;8.20;;;;;;;3.21;100.00;101282.84;5034466;28;20112;-73
2023/12/06 03:25:13;;;;;;;11.30;7.28;;;;;;;3.19;100.00;101277.69;5034461;28;20033;-73
2023/12/06 03:27:38;;;;;;;10.25;7.20;;;;;;;3.24;100.00;101267.31;5034804;28;20037;-73
2023/12/06 03:30:06;;;;;;;8.00;6.72;;;;;;;3.29;100.00;101270.72;5034778;28;20033;-73
2023/12/06 03:32:31;;;;;;;8.48;6.80;;;;;;;3.29;100.00;101272.47;5034802;28;20037;-73
2023/12/06 03:34:56;;;;;;;7.95;6.88;;;;;;;3.30;100.00;101277.63;5035004;28;20092;-73
2023/12/06 03:37:22;;;;;;;6.80;6.15;;;;;;;3.32;100.00;101277.63;5033520;28;20266;-73
2023/12/06 03:39:47;;;;;;;9.13;7.53;;;;;;;3.31;100.00;101275.91;5034259;28;20276;-73
2023/12/06 03:42:12;;;;;;;10.00;7.13;;;;;;;3.32;100.00;101280.22;5034625;28;20060;-73
2023/12/06 03:44:38;;;;;;;8.57;6.63;;;;;;;3.34;100.00;101279.34;5034207;28;20040;-73
2023/12/06 03:47:03;;;;;;;8.38;6.82;;;;;;;3.36;100.00;101280.19;5034539;28;20416;-73
2023/12/06 03:49:29;;;;;;;7.63;6.32;;;;;;;3.38;100.00;101275.00;5034417;28;20332;-73
2023/12/06 03:51:54;;;;;;;7.22;6.35;;;;;;;3.37;100.00;101271.56;5034717;28;20037;-73
2023/12/06 03:54:19;;;;;;;7.68;6.88;;;;;;;3.39;100.00;101276.75;5034256;28;20036;-73
2023/12/06 03:56:45;;;;;;;6.85;6.20;;;;;;;3.40;100.00;101283.63;5033561;28;20029;-73
2023/12/06 03:59:10;;;;;;;6.65;6.00;;;;;;;3.40;100.00;101284.53;5034288;28;20274;-73
2023/12/06 04:01:35;;;;;;;8.48;6.85;;;;;;;3.42;100.00;101290.56;5034353;28;20052;-73
2023/12/06 04:04:01;;;;;;;9.43;6.88;;;;;;;3.43;100.00;101291.41;5033926;28;20033;-73
2023/12/06 04:06:26;;;;;;;14.30;9.25;;;;;;;3.42;100.00;101294.84;5034013;28;20045;-73
2023/12/06 04:08:51;;;;;;;10.82;8.05;;;;;;;3.45;100.00;101294.84;5034392;28;20057;-73
2023/12/06 04:11:17;;;;;;;13.65;9.52;;;;;;;3.45;100.00;101305.19;5034271;28;20049;-73
2023/12/06 04:13:42;;;;;;;12.27;8.70;;;;;;;3.46;100.00;101297.44;5034286;28;20229;-73
2023/12/06 04:16:07;;;;;;;14.35;9.18;;;;;;;3.47;100.00;101306.06;5034335;28;20029;-73
2023/12/06 04:18:33;;;;;;;13.15;9.65;;;;;;;3.47;100.00;101300.88;5033792;28;20375;-73
2023/12/06 04:20:58;;;;;;;14.10;9.77;;;;;;;3.43;100.00;101302.59;5034047;28;20029;-73
2023/12/06 04:23:23;;;;;;;17.75;9.40;;;;;;;3.46;100.00;101310.38;5034045;28;20055;-73
2023/12/06 04:25:49;;;;;;;12.00;9.63;;;;;;;3.48;100.00;101310.38;5033881;28;20044;-73
2023/12/06 04:28:14;;;;;;;10.43;8.68;;;;;;;3.48;100.00;101312.97;5033718;28;20037;-73
2023/12/06 04:30:39;;;;;;;14.48;9.77;;;;;;;3.49;100.00;101313.81;5034237;28;20139;-73
2023/12/06 04:33:05;;;;;;;15.93;9.13;;;;;;;3.48;100.00;101312.13;5033866;28;20089;-73
2023/12/06 04:35:30;;;;;;;12.88;8.73;;;;;;;3.49;100.00;101311.22;5033619;28;20527;-73
2023/12/06 04:37:56;;;;;;;13.30;9.07;;;;;;;3.48;100.00;101312.97;5033935;28;20386;-73
2023/12/06 04:40:21;;;;;;;11.98;9.07;;;;;;;3.47;100.00;101319.00;5033813;28;20288;-73
2023/12/06 04:42:46;;;;;;;11.95;8.77;;;;;;;3.47;100.00;101321.59;5033981;28;20037;-73
2023/12/06 04:45:12;;;;;;;14.93;10.15;;;;;;;3.45;100.00;101331.09;5034147;28;20033;-73
2023/12/06 04:47:37;;;;;;;20.67;10.55;;;;;;;3.44;100.00;101329.38;5033386;28;20206;-73
2023/12/06 04:50:03;;;;;;;20.92;10.68;;;;;;;3.44;100.00;101326.81;5034127;28;20352;-73
2023/12/06 04:52:28;;;;;;;13.10;10.02;;;;;;;3.49;100.00;101329.34;5033548;28;20049;-73
2023/12/06 04:54:54;;;;;;;18.98;11.55;;;;;;;3.49;100.00;101329.34;5033785;28;20090;-73
2023/12/06 04:57:19;;;;;;;17.33;9.95;;;;;;;3.50;100.00;101331.94;5033701;28;20361;-73
2023/12/06 04:59:45;;;;;;;16.27;11.00;;;;;;;3.52;100.00;101337.13;5033747;28;20249;-73
2023/12/06 05:02:10;;;;;;;15.07;11.05;;;;;;;3.53;100.00;101331.94;5033591;28;20263;-73
2023/12/06 05:04:35;;;;;;;14.45;10.05;;;;;;;3.56;100.00;101342.28;5034079;28;20037;-73
2023/12/06 05:07:01;;;;;;;17.73;11.18;;;;;;;3.56;100.00;101349.19;5033357;28;20209;-73
2023/12/06 05:09:27;;;;;;;14.98;9.48;;;;;;;3.56;100.00;101344.84;5033173;28;20033;-73
2023/12/06 05:11:53;;;;;;;10.88;9.10;;;;;;;3.58;100.00;101352.63;5033766;28;20043;-73
2023/12/06 05:14:18;;;;;;;12.57;9.25;;;;;;;3.57;100.00;101356.97;5033409;28;20154;-73
2023/12/06 05:16:44;;;;;;;12.13;8.77;;;;;;;3.55;100.00;101356.09;5033387;28;20040;-73
2023/12/06 05:19:09;;;;;;;12.45;8.93;;;;;;;3.57;100.00;101362.13;5033403;28;20048;-73
2023/12/06 05:21:34;;;;;;;11.27;8.57;;;;;;;3.56;100.00;101356.97;5033361;28;20048;-73
2023/12/06 05:24:00;;;;;;;12.68;9.32;;;;;;;3.59;100.00;101359.53;5032981;28;20329;-73
2023/12/06 05:26:26;;;;;;;11.95;8.35;;;;;;;3.60;100.00;101362.13;5033524;28;20072;-73
2023/12/06 05:28:52;;;;;;;13.38;9.25;;;;;;;3.58;100.00;101361.25;5033747;28;20033;-73
2023/12/06 05:31:17;;;;;;;12.80;8.75;;;;;;;3.59;100.00;101364.72;5032960;28;20037;-73
2023/12/06 05:33:43;;;;;;;14.40;8.93;;;;;;;3.59;100.00;101364.72;5032831;28;20036;-73
2023/12/06 05:36:08;;;;;;;19.92;9.48;;;;;;;3.53;100.00;101369.91;5033611;28;20270;-73
2023/12/06 05:38:33;;;;;;;10.57;8.18;;;;;;;3.55;100.00;101360.44;5032903;28;20324;-73
2023/12/06 05:41:00;;;;;;;10.40;7.15;;;;;;;3.60;100.00;101369.03;5033127;28;20061;-73
2023/12/06 05:43:25;;;;;;;11.75;7.80;;;;;;;3.60;100.00;101364.72;5033502;28;20072;-73
2023/12/06 05:45:50;;;;;;;8.60;7.53;;;;;;;3.60;100.00;101369.91;5033252;28;20489;-73
2023/12/06 05:48:16;;;;;;;10.93;7.88;;;;;;;3.58;100.00;101378.53;5032587;28;20091;-73
2023/12/06 05:50:41;;;;;;;9.23;8.25;;;;;;;3.55;100.00;101382.00;5033367;28;20359;-73
2023/12/06 05:53:06;;;;;;;11.77;7.47;;;;;;;3.55;100.00;101383.75;5033026;28;20044;-73
2023/12/06 05:55:32;;;;;;;14.00;7.43;;;;;;;3.56;100.00;101380.25;5032751;28;20037;-73
2023/12/06 05:57:57;;;;;;;12.15;7.57;;;;;;;3.56;100.00;101390.63;5033435;28;20421;-73
2023/12/06 06:00:24;;;;;;;10.38;7.07;;;;;;;3.55;100.00;101392.38;5034865;28;20041;-73
2023/12/06 06:02:51;;;;;;;11.05;7.95;;;;;;;3.52;100.00;101386.31;5036500;28;20375;-73
2023/12/06 06:05:18;;;;;;;8.98;6.88;;;;;;;3.53;100.00;101394.09;5036740;28;20340;-73
2023/12/06 06:07:43;;;;;;;9.23;7.00;;;;;;;3.56;100.00;101396.66;5036193;28;20052;-73
2023/12/06 06:10:09;;;;;;;10.73;7.47;;;;;;;3.54;100.00;101398.41;5035834;28;20341;-73
2023/12/06 06:12:34;;;;;;;11.38;6.80;;;;;;;3.51;100.00;101406.19;5036662;28;20033;-73
2023/12/06 06:15:00;;;;;;;9.02;6.82;;;;;;;3.47;100.00;101399.28;5036171;28;20100;-73
2023/12/06 06:17:25;;;;;;;8.55;6.70;;;;;;;3.46;100.00;101413.09;5036484;28;20234;-73
2023/12/06 06:19:52;;;;;;;7.90;6.82;;;;;;;3.40;100.00;101413.09;5036572;28;20030;-73
2023/12/06 06:22:17;;;;;;;12.80;7.03;;;;;;;3.34;100.00;101408.78;5036166;28;20676;-73
2023/12/06 06:24:42;;;;;;;9.95;6.85;;;;;;;3.33;100.00;101398.44;5035253;28;20059;-73
2023/12/06 06:27:08;;;;;;;9.57;6.82;;;;;;;3.28;100.00;101398.47;5036171;28;20040;-73
2023/12/06 06:29:33;;;;;;;7.47;6.18;;;;;;;3.26;100.00;101397.59;5035834;28;20037;-73
2023/12/06 06:31:58;;;;;;;8.98;6.53;;;;;;;3.20;100.00;101395.00;5035829;28;20096;-73
2023/12/06 06:34:24;;;;;;;9.10;6.88;;;;;;;3.15;100.00;101407.13;5035975;28;20246;-73
2023/12/06 06:36:49;;;;;;;10.10;6.82;;;;;;;3.08;100.00;101401.06;5033123;28;20029;-73
2023/12/06 06:39:14;;;;;;;8.98;5.90;;;;;;;3.03;100.00;101405.38;5035167;28;20060;-73
2023/12/06 06:41:40;;;;;;;7.50;6.63;;;;;;;2.99;100.00;101406.25;5034668;28;20068;-73
2023/12/06 06:44:06;;;;;;;9.77;6.95;;;;;;;2.95;100.00;101420.03;5035593;28;20045;-73
2023/12/06 06:46:31;;;;;;;11.23;7.10;;;;;;;2.87;100.00;101426.09;5033099;28;20148;-73
2023/12/06 06:48:57;;;;;;;8.85;6.30;;;;;;;2.83;100.00;101429.53;5035649;28;20112;-73
2023/12/06 06:51:33;;;;;;;10.27;6.57;;;;;;;2.84;100.00;101439.03;5035760;28;20037;-73
2023/12/06 06:53:58;;;;;;;7.78;6.50;;;;;;;2.80;100.00;101432.13;5032583;28;20041;-73
2023/12/06 06:56:23;;;;;;;6.75;6.15;;;;;;;2.78;100.00;101433.81;5035495;28;20128;-73
2023/12/06 06:58:49;;;;;;;8.70;6.60;;;;;;;2.74;100.00;101428.66;5035191;28;20029;-73
2023/12/06 07:01:14;;;;;;;7.50;6.30;;;;;;;2.66;100.00;101426.94;5035149;28;20063;-73
2023/12/06 07:03:39;;;;;;;8.57;6.15;;;;;;;2.63;100.00;101426.91;5035137;28;20041;-73
2023/12/06 07:06:05;;;;;;;7.22;6.25;;;;;;;2.58;100.00;101420.88;5034871;28;20079;-73
2023/12/06 07:08:30;;;;;;;7.90;6.40;;;;;;;2.57;100.00;101429.50;5035189;28;20048;-73
2023/12/06 07:10:56;;;;;;;7.20;5.95;;;;;;;2.52;100.00;101435.53;5033468;28;20343;-73
2023/12/06 07:13:22;;;;;;;10.30;6.75;;;;;;;2.54;100.00;101454.50;5035117;28;20017;-73
2023/12/06 07:15:47;;;;;;;7.45;6.10;;;;;;;2.50;100.00;101459.66;5035060;28;20033;-73
2023/12/06 07:18:13;;;;;;;10.98;7.03;;;;;;;2.49;100.00;101450.19;5034337;28;20221;-73
2023/12/06 07:20:38;;;;;;;7.57;6.20;;;;;;;2.52;100.00;101458.78;5034600;28;20451;-73
2023/12/06 07:23:04;;;;;;;13.82;5.80;;;;;;;2.55;100.00;101446.75;5034189;28;20268;-73
2023/12/06 07:25:29;;;;;;;7.45;6.65;;;;;;;2.54;100.00;101454.50;5034781;28;20424;-73
2023/12/06 07:27:55;;;;;;;7.75;6.10;;;;;;;2.55;100.00;101461.38;5034790;28;20033;-73
2023/12/06 07:30:20;;;;;;;8.00;6.35;;;;;;;2.47;100.00;101464.81;5034140;28;20106;-73
2023/12/06 07:32:45;;;;;;;9.43;6.60;;;;;;;2.42;100.00;101457.88;5033260;28;20033;-73
2023/12/06 07:35:11;;;;;;;12.60;6.38;;;;;;;2.34;100.00;101467.34;5034433;28;20033;-73
2023/12/06 07:37:37;;;;;;;7.07;5.88;;;;;;;2.28;100.00;101468.19;5029700;28;20056;-73
2023/12/06 07:40:03;;;;;;;7.93;6.05;;;;;;;2.28;100.00;101460.44;5032982;28;20072;-73
2023/12/06 07:42:29;;;;;;;7.90;6.20;;;;;;;2.30;100.00;101471.66;5032531;28;20040;-73
2023/12/06 07:44:54;;;;;;;11.77;6.50;;;;;;;2.30;100.00;101474.25;5033061;28;20041;-73
2023/12/06 07:47:20;;;;;;;9.68;6.90;;;;;;;2.28;100.00;101476.81;5035230;28;20045;-73
2023/12/06 07:49:46;;;;;;;10.02;7.13;;;;;;;2.24;100.00;101480.25;5035348;28;20044;-73
2023/12/06 07:52:12;;;;;;;9.88;5.75;;;;;;;2.26;100.00;101486.28;5035897;28;20636;-73
2023/12/06 07:54:40;;;;;;;11.07;7.10;;;;;;;2.26;100.00;101483.69;5035326;28;20037;-73
2023/12/06 07:57:08;;;;;;;12.00;6.20;;;;;;;2.24;100.00;101492.31;5036276;28;20029;-73
2023/12/06 07:59:34;;;;;;;9.57;6.65;;;;;;;2.21;100.00;101487.97;5035699;28;20287;-73
2023/12/06 08:02:00;;;;;;;7.25;6.20;;;;;;;2.25;100.00;101496.63;5035111;28;20116;-73
2023/12/06 08:04:25;;;;;;;7.82;6.10;;;;;;;2.28;100.00;101488.88;5039610;28;20052;-73
2023/12/06 08:06:51;;;;;;;9.23;6.22;;;;;;;2.30;100.00;101488.00;5044157;28;20229;-73
2023/12/06 08:09:17;;;;;;;7.38;6.07;;;;;;;2.32;100.00;101490.63;5043327;28;20048;-73
2023/12/06 08:11:43;;;;;;;8.40;6.70;;;;;;;2.33;100.00;101491.47;5042380;28;20017;-73
2023/12/06 08:14:08;;;;;;;9.02;6.00;;;;;;;2.33;100.00;101494.06;5044651;28;20043;-73
2023/12/06 08:16:33;;;;;;;11.90;6.45;;;;;;;2.34;100.00;101503.53;5042085;28;20036;-73
2023/12/06 08:18:59;;;;;;;9.43;6.03;;;;;;;2.37;100.00;101493.22;5042082;28;20379;-73
2023/12/06 08:21:24;;;;;;;10.02;6.43;;;;;;;2.38;100.00;101502.69;5044454;28;20240;-73
2023/12/06 08:23:50;;;;;;;8.90;5.75;;;;;;;2.40;100.00;101499.28;5051938;28;20460;-73
2023/12/06 08:26:16;;;;;;;7.70;6.40;;;;;;;2.42;100.00;101501.84;5069070;28;20044;-73
2023/12/06 08:28:42;;;;;;;9.23;6.30;;;;;;;2.44;100.00;101516.53;5069454;28;20029;-73
2023/12/06 08:31:08;;;;;;;9.60;6.75;;;;;;;2.45;100.00;101510.47;5069166;28;20128;-73
2023/12/06 08:33:35;;;;;;;7.30;6.60;;;;;;;2.46;100.00;101508.78;5072968;28;20016;-73
2023/12/06 08:36:00;;;;;;;7.22;6.10;;;;;;;2.47;100.00;101513.06;5070051;28;20064;-73
2023/12/06 08:38:25;;;;;;;6.82;6.13;;;;;;;2.48;100.00;101517.41;5060487;28;20271;-73
2023/12/06 08:40:51;;;;;;;6.32;5.72;;;;;;;2.51;100.00;101514.84;5052340;28;20039;-73
2023/12/06 08:43:16;;;;;;;6.45;5.85;;;;;;;2.56;100.00;101514.81;5053049;28;20028;-73
2023/12/06 08:45:41;;;;;;;8.48;5.75;;;;;;;2.57;100.00;101519.16;5052029;28;20043;-73
2023/12/06 08:48:08;;;;;;;7.47;6.00;;;;;;;2.61;100.00;101516.56;5052754;28;20036;-73
2023/12/06 08:50:34;;;;;;;7.53;6.07;;;;;;;2.67;100.00;101518.31;5046613;28;20076;-73
2023/12/06 08:52:59;;;;;;;9.15;6.10;;;;;;;2.71;100.00;101530.41;5040754;28;20029;-73
2023/12/06 08:55:25;;;;;;;7.85;5.45;;;;;;;2.75;100.00;101523.50;5033906;28;20025;-73
2023/12/06 08:57:50;;;;;;;11.05;5.97;;;;;;;2.80;100.00;101529.53;5042264;28;20143;-73
2023/12/06 09:00:16;;;;;;;6.80;5.40;;;;;;;2.84;100.00;101528.72;5047670;28;20068;-73
2023/12/06 09:02:45;;;;;;;5.63;4.97;;;;;;;2.86;100.00;101527.84;5037061;28;20204;-73
2023/12/06 09:05:13;;;;;;;6.35;5.75;;;;;;;2.90;100.00;101526.13;5049979;28;20026;-73
2023/12/06 09:07:39;;;;;;;6.50;5.83;;;;;;;2.92;100.00;101531.31;5052202;28;20021;-73
2023/12/06 09:10:08;;;;;;;6.38;5.47;;;;;;;2.93;100.00;101535.59;5038304;28;20048;-73
2023/12/06 09:12:34;;;;;;;8.40;6.35;;;;;;;2.94;100.00;101538.19;5041445;28;20236;-73
2023/12/06 09:14:59;;;;;;;6.43;5.60;;;;;;;2.99;100.00;101548.56;5052358;28;20029;-73
2023/12/06 09:17:24;;;;;;;7.03;5.20;;;;;;;3.00;100.00;101539.94;5051685;28;20434;-73
2023/12/06 09:19:51;;;;;;;8.63;6.47;;;;;;;3.03;100.00;101545.97;5057077;28;20100;-73
2023/12/06 09:22:17;;;;;;;9.35;5.45;;;;;;;3.07;100.00;101544.25;5068889;28;20107;-73
2023/12/06 09:24:43;;;;;;;6.97;6.07;;;;;;;3.12;100.00;101544.28;5030907;28;20049;-73
2023/12/06 09:27:09;;;;;;;6.18;5.53;;;;;;;3.17;100.00;101550.34;5033514;28;20029;-73
2023/12/06 09:29:35;;;;;;;6.68;6.07;;;;;;;3.22;100.00;101549.47;5027456;28;20076;-73
2023/12/06 09:32:01;;;;;;;7.25;5.60;;;;;;;3.26;100.00;101548.59;5032935;28;20029;-73
2023/12/06 09:34:26;;;;;;;6.93;5.75;;;;;;;3.30;100.00;101551.22;5031586;28;20237;-73
2023/12/06 09:36:51;;;;;;;6.68;5.68;;;;;;;3.34;100.00;101555.53;5036951;28;20324;-73
2023/12/06 09:39:20;;;;;;;10.00;5.70;;;;;;;3.35;100.00;101549.50;5042899;28;20115;-73
2023/12/06 09:41:46;;;;;;;9.15;6.53;;;;;;;3.35;100.00;101554.66;5029944;28;20034;-73
2023/12/06 09:44:11;;;;;;;6.25;5.57;;;;;;;3.38;100.00;101557.25;5031888;28;20309;-73
2023/12/06 09:46:36;;;;;;;9.52;7.05;;;;;;;3.41;100.00;101552.94;5031893;28;20072;-73
2023/12/06 09:49:02;;;;;;;8.43;6.43;;;;;;;3.43;100.00;101551.19;5030446;28;20056;-73
2023/12/06 09:51:28;;;;;;;10.13;6.53;;;;;;;3.46;100.00;101563.31;5027312;28;20067;-73
2023/12/06 09:53:53;;;;;;;8.95;5.70;;;;;;;3.49;100.00;101563.28;5029429;28;20030;-73
2023/12/06 09:56:18;;;;;;;6.80;5.53;;;;;;;3.54;100.00;101568.47;5033918;28;20091;-73
2023/12/06 09:58:45;;;;;;;7.28;5.75;;;;;;;3.56;100.00;101569.34;5034503;28;20026;-73
2023/12/06 10:01:11;;;;;;;5.88;5.28;;;;;;;3.59;100.00;101582.28;5034221;28;20033;-73
2023/12/06 10:03:38;;;;;;;6.15;5.40;;;;;;;3.59;100.00;101580.56;5033415;28;20045;-73
2023/12/06 10:06:03;;;;;;;12.40;6.40;;;;;;;3.61;100.00;101578.84;5022606;28;20052;-73
2023/12/06 10:08:32;;;;;;;7.30;5.78;;;;;;;3.64;100.00;101584.03;5032784;28;20064;-73
2023/12/06 10:11:04;;;;;;;6.75;5.65;;;;;;;3.68;100.00;101579.72;5031688;28;20032;-73
2023/12/06 10:13:37;;;;;;;6.63;6.03;;;;;;;3.70;100.00;101572.78;5025503;28;20033;-73
2023/12/06 10:16:11;;;;;;;7.47;5.97;;;;;;;3.73;100.00;101570.22;5031152;28;20333;-73
2023/12/06 10:18:36;;;;;;;7.05;5.70;;;;;;;3.77;100.00;101566.75;5024316;28;20045;-73
2023/12/06 10:21:02;;;;;;;8.73;5.53;;;;;;;3.79;100.00;101564.16;5029048;28;20029;-73
2023/12/06 10:23:30;;;;;;;10.30;5.70;;;;;;;3.83;100.00;101563.28;5039194;28;20266;-73
2023/12/06 10:25:55;;;;;;;7.17;5.67;;;;;;;3.87;100.00;101565.00;5043775;28;20316;-73
2023/12/06 10:28:21;;;;;;;8.48;5.68;;;;;;;3.88;100.00;101564.16;5039916;28;20029;-73
2023/12/06 10:30:46;;;;;;;9.32;5.55;;;;;;;3.91;100.00;101571.03;5043732;28;20111;-73
2023/12/06 10:33:12;;;;;;;9.68;5.60;;;;;;;3.90;100.00;101569.31;5043063;28;20025;-73
2023/12/06 10:35:38;;;;;;;8.63;5.40;;;;;;;3.93;100.00;101572.78;5044596;28;20024;-73
2023/12/06 10:38:07;;;;;;;7.47;5.47;;;;;;;3.96;100.00;101574.50;5037901;28;20048;-73
2023/12/06 10:40:32;;;;;;;5.38;4.88;;;;;;;3.98;100.00;101576.22;5043526;28;20458;-73
2023/12/06 10:43:06;;;;;;;7.20;5.30;;;;;;;4.01;100.00;101572.75;5029319;28;20025;-73
2023/12/06 10:45:34;;;;;;;4.80;4.40;;;;;;;4.04;100.00;101571.03;5032705;28;20099;-73
2023/12/06 10:48:04;;;;;;;6.65;5.25;;;;;;;4.09;100.00;101572.75;5033351;28;20044;-73
2023/12/06 10:50:31;;;;;;;5.15;4.63;;;;;;;4.13;100.00;101571.84;5033886;28;20029;-73
2023/12/06 10:52:58;;;;;;;5.25;4.75;;;;;;;4.16;100.00;101570.13;5032937;28;20161;-73
2023/12/06 10:55:28;;;;;;;7.13;4.78;;;;;;;4.17;100.00;101577.03;5032246;28;20060;-73
2023/12/06 10:57:57;;;;;;;5.57;5.03;;;;;;;4.20;100.00;101568.38;5033244;28;20087;-73
2023/12/06 11:00:23;;;;;;;5.45;4.38;;;;;;;4.22;100.00;101572.72;5032714;28;20036;-73
2023/12/06 11:02:49;;;;;;;5.68;4.43;;;;;;;4.25;100.00;101571.84;5032964;28;20392;-73
2023/12/06 11:05:17;;;;;;;8.43;4.97;;;;;;;4.27;100.00;101575.28;5033119;28;20048;-73
2023/12/06 11:07:51;;;;;;;7.57;5.00;;;;;;;4.27;100.00;101575.28;5032044;28;20064;-73
2023/12/06 11:10:34;;;;;;;10.15;4.28;;;;;;;4.31;100.00;101583.91;5030782;28;20037;-73
2023/12/06 11:13:27;;;;;;;6.60;4.00;;;;;;;4.33;100.00;101577.88;5031418;28;20338;-73